createdAt,value
2022-07-28T00:02:05.975Z,14.70
2022-07-28T00:04:33.847Z,14.58
2022-07-28T00:07:01.145Z,14.59
2022-07-28T00:09:27.942Z,14.56
2022-07-28T00:11:55.112Z,14.61
2022-07-28T00:14:22.554Z,14.62
2022-07-28T00:16:49.483Z,14.57
2022-07-28T00:19:16.089Z,14.59
2022-07-28T00:21:42.795Z,14.58
2022-07-28T00:24:09.313Z,14.65
2022-07-28T00:26:36.092Z,14.61
2022-07-28T00:29:02.659Z,14.59
2022-07-28T00:31:29.167Z,14.57
2022-07-28T00:33:55.649Z,14.61
2022-07-28T00:36:25.760Z,14.55
2022-07-28T00:38:52.579Z,14.51
2022-07-28T00:41:20.581Z,14.52
2022-07-28T00:43:49.468Z,14.57
2022-07-28T00:46:18.661Z,14.58
2022-07-28T00:48:54.008Z,14.56
2022-07-28T00:51:24.632Z,14.51
2022-07-28T00:53:51.276Z,14.45
2022-07-28T00:56:18.942Z,14.54
2022-07-28T00:58:47.159Z,14.50
2022-07-28T01:01:17.620Z,14.47
2022-07-28T01:03:47.784Z,14.46
2022-07-28T01:06:51.854Z,14.47
2022-07-28T01:09:31.389Z,14.36
2022-07-28T01:12:16.628Z,14.31
2022-07-28T01:15:22.181Z,14.20
2022-07-28T01:18:15.198Z,14.19
2022-07-28T01:20:48.675Z,14.21
2022-07-28T01:23:24.178Z,14.13
2022-07-28T01:26:06.793Z,14.16
2022-07-28T01:28:39.528Z,14.11
2022-07-28T01:31:09.049Z,14.03
2022-07-28T01:33:39.644Z,14.04
2022-07-28T01:36:10.172Z,14.03
2022-07-28T01:38:39.263Z,14.01
2022-07-28T01:41:09.836Z,13.98
2022-07-28T01:43:40.062Z,13.98
2022-07-28T01:46:09.038Z,14.01
2022-07-28T01:48:38.910Z,13.94
2022-07-28T01:51:07.447Z,13.97
2022-07-28T01:53:37.696Z,13.98
2022-07-28T01:56:05.875Z,13.87
2022-07-28T01:58:34.057Z,13.82
2022-07-28T02:01:03.652Z,13.76
2022-07-28T02:03:31.697Z,13.72
2022-07-28T02:05:59.490Z,13.72
2022-07-28T02:08:26.521Z,13.70
2022-07-28T02:11:13.821Z,13.72
2022-07-28T02:13:42.732Z,13.73
2022-07-28T02:16:11.869Z,13.71
2022-07-28T02:18:39.636Z,13.67
2022-07-28T02:21:07.410Z,13.63
2022-07-28T02:23:35.122Z,13.60
2022-07-28T02:26:04.396Z,13.60
2022-07-28T02:28:31.568Z,13.61
2022-07-28T02:31:04.560Z,13.60
2022-07-28T02:33:59.251Z,13.56
2022-07-28T02:36:27.453Z,13.62
2022-07-28T02:39:01.421Z,13.60
2022-07-28T02:41:32.308Z,13.55
2022-07-28T02:44:03.404Z,13.56
2022-07-28T02:46:38.286Z,13.53
2022-07-28T02:49:12.285Z,13.59
2022-07-28T02:51:41.930Z,13.53
2022-07-28T02:54:10.231Z,13.49
2022-07-28T02:56:37.719Z,13.52
2022-07-28T02:59:04.793Z,13.52
2022-07-28T03:01:31.951Z,13.58
2022-07-28T03:04:02.110Z,13.63
2022-07-28T03:06:29.156Z,13.66
2022-07-28T03:08:57.818Z,13.64
2022-07-28T03:11:24.726Z,13.69
2022-07-28T03:13:52.278Z,13.66
2022-07-28T03:16:19.122Z,13.69
2022-07-28T03:18:45.848Z,13.69
2022-07-28T03:21:12.558Z,13.68
2022-07-28T03:23:43.678Z,13.63
2022-07-28T03:26:17.301Z,13.71
2022-07-28T03:28:46.675Z,13.65
2022-07-28T03:31:15.173Z,13.69
2022-07-28T03:33:41.976Z,13.79
2022-07-28T03:36:13.580Z,13.81
2022-07-28T03:38:51.599Z,13.83
2022-07-28T03:41:19.247Z,13.78
2022-07-28T03:43:46.432Z,13.74
2022-07-28T03:46:13.561Z,13.72
2022-07-28T03:48:40.692Z,13.71
2022-07-28T03:51:07.184Z,13.75
2022-07-28T03:53:33.847Z,13.73
2022-07-28T03:56:00.375Z,13.74
2022-07-28T03:58:28.635Z,13.68
2022-07-28T04:00:55.929Z,13.73
2022-07-28T04:03:42.548Z,13.71
2022-07-28T04:06:09.187Z,13.70
2022-07-28T04:08:35.794Z,13.68
2022-07-28T04:11:02.334Z,13.67
2022-07-28T04:13:28.951Z,13.62
2022-07-28T04:15:55.420Z,13.50
2022-07-28T04:18:22.052Z,13.60
2022-07-28T04:20:48.589Z,13.59
2022-07-28T04:23:15.338Z,13.64
2022-07-28T04:25:41.811Z,13.64
2022-07-28T04:28:08.472Z,13.64
2022-07-28T04:30:35.040Z,13.71
2022-07-28T04:33:10.204Z,13.71
2022-07-28T04:35:37.887Z,13.70
2022-07-28T04:38:04.416Z,13.75
2022-07-28T04:40:30.868Z,13.66
2022-07-28T04:42:57.665Z,13.79
2022-07-28T04:45:24.096Z,13.77
2022-07-28T04:47:51.763Z,13.78
2022-07-28T04:50:20.694Z,13.79
2022-07-28T04:52:49.256Z,13.82
2022-07-28T04:55:16.774Z,13.84
2022-07-28T04:57:43.553Z,13.85
2022-07-28T05:00:13.602Z,13.84
2022-07-28T05:02:45.550Z,13.85
2022-07-28T05:05:12.975Z,13.87
2022-07-28T05:07:40.701Z,13.93
2022-07-28T05:10:08.980Z,13.98
2022-07-28T05:12:35.943Z,14.03
2022-07-28T05:15:02.476Z,14.06
2022-07-28T05:17:29.233Z,14.11
2022-07-28T05:19:55.701Z,14.15
2022-07-28T05:22:22.176Z,14.22
2022-07-28T05:24:48.728Z,14.27
2022-07-28T05:27:15.462Z,14.44
2022-07-28T05:29:47.338Z,14.52
2022-07-28T05:32:17.246Z,14.68
2022-07-28T05:34:45.300Z,14.76
2022-07-28T05:37:12.065Z,14.80
2022-07-28T05:39:38.684Z,14.87
2022-07-28T05:42:05.331Z,14.96
2022-07-28T05:44:37.638Z,15.01
2022-07-28T05:47:04.985Z,15.08
2022-07-28T05:49:31.486Z,15.15
2022-07-28T05:51:58.516Z,15.23
2022-07-28T05:54:24.993Z,15.34
2022-07-28T05:56:52.485Z,15.32
2022-07-28T05:59:19.012Z,15.40
2022-07-28T06:01:46.034Z,15.41
2022-07-28T06:04:29.429Z,15.43
2022-07-28T06:06:56.144Z,15.43
2022-07-28T06:09:22.653Z,15.40
2022-07-28T06:11:50.521Z,15.43
2022-07-28T06:14:18.192Z,15.52
2022-07-28T06:16:45.201Z,15.50
2022-07-28T06:19:12.497Z,15.53
2022-07-28T06:21:38.896Z,15.58
2022-07-28T06:24:08.258Z,15.71
2022-07-28T06:26:39.607Z,15.87
2022-07-28T06:29:08.673Z,15.92
2022-07-28T06:31:35.717Z,15.99
2022-07-28T06:34:02.244Z,16.12
2022-07-28T06:36:28.756Z,16.20
2022-07-28T06:38:55.235Z,16.20
2022-07-28T06:41:22.870Z,16.31
2022-07-28T06:43:51.543Z,16.45
2022-07-28T06:46:19.467Z,16.54
2022-07-28T06:48:46.189Z,16.53
2022-07-28T06:51:13.028Z,16.61
2022-07-28T06:53:39.714Z,16.69
2022-07-28T06:56:07.537Z,16.74
2022-07-28T06:58:36.665Z,16.66
2022-07-28T07:01:07.561Z,16.87
2022-07-28T07:03:34.783Z,16.86
2022-07-28T07:06:01.347Z,16.83
2022-07-28T07:08:27.931Z,16.90
2022-07-28T07:10:54.335Z,16.99
2022-07-28T07:13:20.783Z,17.08
2022-07-28T07:15:47.239Z,17.14
2022-07-28T07:18:13.893Z,17.31
2022-07-28T07:20:40.502Z,17.32
2022-07-28T07:23:06.993Z,17.51
2022-07-28T07:25:33.601Z,17.65
2022-07-28T07:28:00.199Z,17.76
2022-07-28T07:30:26.695Z,18.13
2022-07-28T07:32:53.282Z,18.23
2022-07-28T07:35:19.694Z,18.47
2022-07-28T07:37:46.187Z,18.63
2022-07-28T07:40:12.832Z,18.85
2022-07-28T07:42:39.409Z,18.90
2022-07-28T07:45:06.262Z,19.04
2022-07-28T07:47:32.885Z,19.10
2022-07-28T07:50:03.853Z,19.25
2022-07-28T07:52:31.018Z,19.33
2022-07-28T07:54:57.825Z,19.37
2022-07-28T07:57:24.354Z,19.10
2022-07-28T07:59:50.759Z,19.12
2022-07-28T08:02:17.237Z,19.31
2022-07-28T08:04:43.692Z,19.46
2022-07-28T08:07:11.222Z,19.32
2022-07-28T08:09:38.550Z,19.39
2022-07-28T08:12:05.459Z,19.63
2022-07-28T08:14:31.960Z,20.00
2022-07-28T08:17:01.777Z,20.30
2022-07-28T08:19:28.158Z,20.07
2022-07-28T08:21:55.466Z,20.16
2022-07-28T08:24:32.588Z,20.27
2022-07-28T08:27:01.836Z,20.15
2022-07-28T08:29:28.610Z,20.28
2022-07-28T08:31:55.145Z,20.19
2022-07-28T08:34:29.812Z,20.21
2022-07-28T08:37:01.360Z,20.22
2022-07-28T08:39:27.877Z,20.17
2022-07-28T08:41:59.643Z,20.19
2022-07-28T08:44:30.741Z,20.18
2022-07-28T08:46:57.977Z,20.17
2022-07-28T08:49:24.781Z,20.38
2022-07-28T08:51:54.760Z,20.44
2022-07-28T08:54:25.434Z,20.40
2022-07-28T08:56:52.384Z,20.24
2022-07-28T08:59:18.901Z,20.18
2022-07-28T09:01:46.153Z,20.17
2022-07-28T09:04:13.339Z,20.12
2022-07-28T09:06:42.767Z,20.23
2022-07-28T09:09:10.027Z,20.28
2022-07-28T09:11:37.718Z,20.25
2022-07-28T09:14:05.589Z,20.35
2022-07-28T09:16:32.671Z,20.33
2022-07-28T09:18:59.214Z,20.45
2022-07-28T09:21:25.975Z,20.65
2022-07-28T09:23:53.258Z,20.71
2022-07-28T09:26:19.829Z,20.86
2022-07-28T09:28:54.262Z,21.01
2022-07-28T09:31:22.734Z,21.17
2022-07-28T09:34:04.226Z,21.10
2022-07-28T09:36:41.881Z,20.82
2022-07-28T09:39:09.109Z,20.69
2022-07-28T09:42:08.163Z,20.74
2022-07-28T09:44:34.639Z,20.82
2022-07-28T09:47:01.317Z,21.01
2022-07-28T09:49:42.995Z,21.00
2022-07-28T09:52:09.847Z,20.87
2022-07-28T09:54:40.815Z,20.83
2022-07-28T09:57:11.340Z,20.69
2022-07-28T09:59:45.440Z,20.60
2022-07-28T10:02:31.514Z,20.52
2022-07-28T10:05:00.166Z,20.63
2022-07-28T10:07:29.659Z,20.61
2022-07-28T10:09:58.178Z,20.75
2022-07-28T10:12:27.156Z,21.01
2022-07-28T10:15:31.545Z,21.07
2022-07-28T10:17:58.543Z,21.14
2022-07-28T10:20:26.695Z,20.97
2022-07-28T10:22:58.899Z,20.85
2022-07-28T10:25:27.729Z,20.96
2022-07-28T10:27:55.837Z,21.06
2022-07-28T10:30:23.020Z,20.98
2022-07-28T10:32:49.532Z,21.01
2022-07-28T10:35:17.580Z,20.99
2022-07-28T10:38:03.762Z,20.83
2022-07-28T10:40:34.037Z,21.07
2022-07-28T10:43:00.660Z,21.28
2022-07-28T10:45:47.919Z,21.53
2022-07-28T10:48:15.340Z,21.76
2022-07-28T10:50:42.519Z,21.84
2022-07-28T10:53:11.782Z,21.81
2022-07-28T10:56:02.447Z,21.66
2022-07-28T10:58:49.296Z,21.64
2022-07-28T11:01:50.154Z,21.64
2022-07-28T11:04:41.467Z,21.69
2022-07-28T11:07:12.875Z,21.79
2022-07-28T11:09:39.449Z,21.61
2022-07-28T11:12:06.275Z,21.21
2022-07-28T11:14:39.195Z,21.09
2022-07-28T11:17:10.362Z,21.14
2022-07-28T11:20:00.852Z,21.23
2022-07-28T11:22:30.432Z,21.29
2022-07-28T11:25:18.025Z,21.27
2022-07-28T11:27:51.358Z,21.30
2022-07-28T11:30:36.671Z,21.42
2022-07-28T11:33:05.524Z,21.29
2022-07-28T11:35:53.221Z,21.30
2022-07-28T11:38:20.393Z,21.46
2022-07-28T11:40:49.786Z,21.57
2022-07-28T11:43:35.639Z,21.55
2022-07-28T11:46:07.616Z,21.60
2022-07-28T11:48:38.858Z,21.37
2022-07-28T11:51:05.400Z,21.29
2022-07-28T11:53:46.889Z,21.47
2022-07-28T11:56:16.003Z,21.57
2022-07-28T11:58:43.506Z,21.36
2022-07-28T12:01:17.134Z,21.26
2022-07-28T12:03:56.814Z,21.21
2022-07-28T12:06:35.412Z,21.15
2022-07-28T12:09:05.166Z,21.12
2022-07-28T12:11:40.964Z,21.11
2022-07-28T12:14:15.970Z,20.77
2022-07-28T12:16:45.089Z,20.83
2022-07-28T12:19:15.543Z,20.96
2022-07-28T12:21:48.199Z,21.28
2022-07-28T12:24:17.113Z,21.00
2022-07-28T12:26:49.717Z,20.89
2022-07-28T12:29:16.742Z,21.17
2022-07-28T12:32:00.594Z,21.30
2022-07-28T12:34:29.640Z,21.27
2022-07-28T12:36:58.990Z,21.27
2022-07-28T12:39:26.045Z,21.31
2022-07-28T12:42:06.207Z,21.43
2022-07-28T12:44:43.209Z,21.53
2022-07-28T12:47:12.466Z,21.40
2022-07-28T12:49:42.291Z,21.41
2022-07-28T12:52:23.064Z,21.07
2022-07-28T12:54:55.166Z,20.78
2022-07-28T12:57:44.827Z,20.63
2022-07-28T13:00:16.707Z,20.64
2022-07-28T13:02:43.338Z,20.64
2022-07-28T13:05:10.932Z,20.82
2022-07-28T13:07:40.397Z,20.81
2022-07-28T13:10:12.672Z,20.85
2022-07-28T13:12:39.359Z,20.89
2022-07-28T13:15:16.731Z,21.06
2022-07-28T13:17:53.478Z,21.12
2022-07-28T13:20:21.916Z,21.06
2022-07-28T13:22:48.490Z,21.23
2022-07-28T13:25:15.128Z,21.25
2022-07-28T13:27:41.667Z,21.41
2022-07-28T13:30:09.839Z,21.96
2022-07-28T13:32:36.388Z,21.86
2022-07-28T13:35:04.112Z,22.12
2022-07-28T13:37:30.804Z,22.18
2022-07-28T13:39:57.663Z,22.09
2022-07-28T13:42:24.301Z,22.34
2022-07-28T13:44:50.822Z,22.34
2022-07-28T13:47:17.938Z,21.80
2022-07-28T13:49:44.631Z,21.69
2022-07-28T13:52:17.049Z,21.48
2022-07-28T13:54:55.981Z,21.81
2022-07-28T13:57:22.587Z,21.75
2022-07-28T13:59:49.044Z,21.89
2022-07-28T14:02:16.338Z,22.08
2022-07-28T14:04:45.885Z,22.39
2022-07-28T14:07:21.346Z,22.76
2022-07-28T14:09:48.639Z,22.53
2022-07-28T14:12:15.105Z,22.35
2022-07-28T14:14:47.755Z,22.09
2022-07-28T14:17:42.419Z,22.13
2022-07-28T14:20:02.237Z,22.00
2022-07-28T14:22:28.646Z,21.93
2022-07-28T14:24:55.057Z,22.13
2022-07-28T14:27:25.882Z,22.10
2022-07-28T14:29:55.337Z,21.94
2022-07-28T14:32:21.802Z,21.95
2022-07-28T14:34:48.466Z,21.95
2022-07-28T14:37:15.341Z,21.71
2022-07-28T14:39:41.958Z,21.26
2022-07-28T14:42:08.554Z,21.23
2022-07-28T14:44:35.259Z,21.37
2022-07-28T14:47:02.754Z,21.42
2022-07-28T14:49:29.520Z,21.37
2022-07-28T14:51:59.595Z,21.32
2022-07-28T14:54:27.606Z,21.38
2022-07-28T14:56:54.222Z,21.15
2022-07-28T14:59:21.747Z,21.05
2022-07-28T15:01:48.804Z,21.02
2022-07-28T15:04:16.185Z,21.01
2022-07-28T15:06:43.230Z,20.94
2022-07-28T15:09:09.726Z,20.90
2022-07-28T15:11:37.015Z,20.92
2022-07-28T15:14:04.345Z,20.88
2022-07-28T15:16:30.929Z,20.83
2022-07-28T15:18:57.797Z,21.02
2022-07-28T15:21:24.269Z,21.08
2022-07-28T15:23:51.013Z,21.26
2022-07-28T15:26:17.648Z,21.67
2022-07-28T15:28:44.143Z,22.03
2022-07-28T15:31:11.372Z,22.09
2022-07-28T15:33:47.706Z,22.40
2022-07-28T15:36:15.486Z,22.39
2022-07-28T15:38:42.045Z,22.32
2022-07-28T15:41:14.962Z,22.26
2022-07-28T15:43:42.010Z,22.21
2022-07-28T15:46:11.637Z,22.06
2022-07-28T15:48:39.677Z,21.78
2022-07-28T15:51:06.452Z,21.54
2022-07-28T15:53:34.301Z,21.48
2022-07-28T15:56:01.304Z,21.46
2022-07-28T15:58:27.787Z,21.47
2022-07-28T16:00:54.305Z,21.34
2022-07-28T16:03:22.680Z,21.20
2022-07-28T16:05:50.153Z,20.97
2022-07-28T16:08:18.821Z,20.99
2022-07-28T16:10:50.021Z,21.03
2022-07-28T16:13:22.727Z,20.98
2022-07-28T16:16:02.723Z,21.03
2022-07-28T16:18:29.158Z,20.94
2022-07-28T16:20:55.781Z,20.86
2022-07-28T16:23:22.444Z,20.87
2022-07-28T16:25:48.992Z,20.74
2022-07-28T16:28:16.192Z,20.75
2022-07-28T16:30:42.750Z,20.69
2022-07-28T16:33:09.166Z,20.77
2022-07-28T16:35:35.676Z,20.83
2022-07-28T16:38:04.932Z,20.92
2022-07-28T16:40:32.458Z,20.82
2022-07-28T16:43:02.341Z,20.77
2022-07-28T16:45:30.677Z,20.66
2022-07-28T16:47:58.028Z,20.66
2022-07-28T16:50:24.620Z,20.65
2022-07-28T16:52:51.954Z,20.63
2022-07-28T16:55:23.726Z,20.74
2022-07-28T16:57:51.085Z,20.76
2022-07-28T17:00:18.316Z,20.76
2022-07-28T17:02:44.990Z,20.66
2022-07-28T17:05:13.487Z,20.71
2022-07-28T17:07:46.004Z,20.76
2022-07-28T17:10:15.102Z,20.73
2022-07-28T17:12:49.613Z,20.68
2022-07-28T17:15:16.666Z,20.66
2022-07-28T17:17:49.039Z,20.70
2022-07-28T17:20:16.626Z,20.61
2022-07-28T17:22:44.385Z,20.58
2022-07-28T17:25:28.414Z,20.61
2022-07-28T17:27:57.672Z,20.55
2022-07-28T17:30:29.825Z,20.53
2022-07-28T17:33:03.492Z,20.49
2022-07-28T17:35:41.651Z,20.43
2022-07-28T17:38:09.405Z,20.44
2022-07-28T17:40:40.090Z,20.49
2022-07-28T17:43:06.774Z,20.41
2022-07-28T17:45:33.241Z,20.27
2022-07-28T17:47:59.799Z,20.24
2022-07-28T17:50:26.552Z,20.24
2022-07-28T17:52:53.066Z,20.30
2022-07-28T17:55:57.898Z,20.26
2022-07-28T17:58:26.389Z,20.29
2022-07-28T18:00:58.595Z,20.29
2022-07-28T18:03:58.203Z,20.22
2022-07-28T18:06:26.790Z,20.14
2022-07-28T18:08:53.273Z,20.09
2022-07-28T18:11:19.844Z,20.13
2022-07-28T18:14:03.605Z,20.07
2022-07-28T18:16:32.391Z,20.03
2022-07-28T18:18:59.481Z,20.02
2022-07-28T18:21:26.617Z,19.95
2022-07-28T18:23:54.894Z,19.94
2022-07-28T18:26:21.955Z,19.87
2022-07-28T18:28:48.815Z,19.92
2022-07-28T18:31:15.759Z,19.85
2022-07-28T18:33:42.427Z,19.83
2022-07-28T18:36:09.078Z,19.79
2022-07-28T18:38:35.614Z,19.76
2022-07-28T18:41:02.077Z,19.70
2022-07-28T18:43:28.517Z,19.69
2022-07-28T18:45:55.107Z,19.64
2022-07-28T18:48:21.707Z,19.54
2022-07-28T18:50:48.351Z,19.53
2022-07-28T18:53:14.993Z,19.53
2022-07-28T18:55:41.618Z,19.58
2022-07-28T18:58:08.211Z,19.55
2022-07-28T19:00:34.821Z,19.52
2022-07-28T19:03:01.596Z,19.46
2022-07-28T19:05:36.436Z,19.45
2022-07-28T19:08:04.357Z,19.40
2022-07-28T19:10:34.458Z,19.47
2022-07-28T19:13:01.150Z,19.43
2022-07-28T19:15:27.865Z,19.34
2022-07-28T19:18:11.552Z,19.26
2022-07-28T19:20:39.657Z,19.20
2022-07-28T19:23:06.140Z,19.19
2022-07-28T19:25:35.506Z,19.13
2022-07-28T19:28:02.020Z,19.09
2022-07-28T19:30:33.134Z,19.11
2022-07-28T19:33:00.243Z,19.08
2022-07-28T19:35:26.838Z,19.06
2022-07-28T19:37:53.398Z,18.99
2022-07-28T19:40:20.142Z,18.98
2022-07-28T19:42:48.332Z,18.94
2022-07-28T19:45:15.038Z,18.97
2022-07-28T19:47:42.206Z,19.04
2022-07-28T19:50:08.869Z,18.97
2022-07-28T19:52:35.719Z,18.91
2022-07-28T19:55:05.269Z,18.84
2022-07-28T19:57:32.795Z,18.78
2022-07-28T19:59:59.317Z,18.76
2022-07-28T20:02:25.795Z,18.67
2022-07-28T20:04:52.382Z,18.63
2022-07-28T20:07:19.066Z,18.53
2022-07-28T20:09:45.777Z,18.48
2022-07-28T20:12:12.248Z,18.48
2022-07-28T20:14:39.026Z,18.43
2022-07-28T20:17:05.830Z,18.41
2022-07-28T20:19:32.458Z,18.35
2022-07-28T20:21:59.247Z,18.32
2022-07-28T20:24:25.755Z,18.30
2022-07-28T20:26:52.308Z,18.29
2022-07-28T20:29:18.788Z,18.21
2022-07-28T20:31:45.260Z,18.17
2022-07-28T20:34:12.973Z,18.14
2022-07-28T20:36:39.843Z,18.12
2022-07-28T20:39:27.422Z,18.14
2022-07-28T20:41:52.856Z,18.11
2022-07-28T20:44:28.872Z,18.04
2022-07-28T20:46:58.859Z,18.02
2022-07-28T20:49:25.463Z,18.01
2022-07-28T20:51:51.978Z,17.96
2022-07-28T20:54:18.907Z,17.93
2022-07-28T20:56:45.547Z,17.83
2022-07-28T20:59:12.192Z,17.82
2022-07-28T21:01:40.671Z,17.84
2022-07-28T21:04:11.388Z,17.83
2022-07-28T21:06:38.422Z,17.74
2022-07-28T21:09:05.344Z,17.75
2022-07-28T21:11:35.079Z,17.71
2022-07-28T21:14:02.193Z,17.67
2022-07-28T21:16:28.815Z,17.62
2022-07-28T21:18:55.442Z,17.62
2022-07-28T21:21:22.204Z,17.62
2022-07-28T21:23:49.358Z,17.58
2022-07-28T21:26:16.445Z,17.45
2022-07-28T21:29:01.778Z,17.46
2022-07-28T21:31:28.499Z,17.43
2022-07-28T21:33:55.026Z,17.36
2022-07-28T21:36:21.582Z,17.35
2022-07-28T21:38:48.409Z,17.34
2022-07-28T21:41:14.944Z,17.36
2022-07-28T21:43:41.411Z,17.39
2022-07-28T21:46:07.983Z,17.37
2022-07-28T21:48:34.653Z,17.36
2022-07-28T21:51:01.151Z,17.31
2022-07-28T21:53:27.645Z,17.28
2022-07-28T21:55:54.313Z,17.22
2022-07-28T21:58:21.072Z,17.22
2022-07-28T22:00:47.746Z,17.20
2022-07-28T22:03:14.283Z,17.22
2022-07-28T22:05:40.954Z,17.18
2022-07-28T22:08:09.324Z,17.15
2022-07-28T22:10:35.791Z,17.07
2022-07-28T22:13:02.227Z,17.03
2022-07-28T22:15:28.755Z,17.00
2022-07-28T22:17:55.212Z,16.94
2022-07-28T22:20:21.790Z,16.91
2022-07-28T22:22:48.255Z,16.91
2022-07-28T22:25:14.769Z,16.85
2022-07-28T22:27:41.416Z,16.81
2022-07-28T22:30:08.296Z,16.74
2022-07-28T22:32:34.852Z,16.73
2022-07-28T22:35:01.383Z,16.71
2022-07-28T22:37:28.046Z,16.66
2022-07-28T22:39:54.745Z,16.66
2022-07-28T22:42:21.402Z,16.60
2022-07-28T22:44:48.447Z,16.57
2022-07-28T22:47:15.011Z,16.45
2022-07-28T22:49:41.643Z,16.41
2022-07-28T22:52:08.265Z,16.40
2022-07-28T22:54:39.160Z,16.39
2022-07-28T22:57:06.157Z,16.38
2022-07-28T22:59:38.682Z,16.31
2022-07-28T23:02:06.842Z,16.29
2022-07-28T23:04:33.342Z,16.29
2022-07-28T23:06:59.835Z,16.26
2022-07-28T23:09:27.445Z,16.17
2022-07-28T23:11:55.930Z,16.15
2022-07-28T23:14:22.853Z,16.22
2022-07-28T23:16:49.442Z,16.18
2022-07-28T23:19:16.558Z,16.20
2022-07-28T23:21:43.017Z,16.12
2022-07-28T23:24:09.487Z,16.14
2022-07-28T23:26:35.982Z,16.09
2022-07-28T23:29:02.579Z,15.99
2022-07-28T23:31:29.299Z,16.08
2022-07-28T23:33:57.658Z,16.06
2022-07-28T23:36:26.654Z,16.04
2022-07-28T23:38:56.854Z,16.01
2022-07-28T23:41:23.823Z,15.93
2022-07-28T23:43:50.471Z,15.93
2022-07-28T23:46:17.060Z,15.88
2022-07-28T23:48:44.225Z,15.85
2022-07-28T23:51:10.929Z,15.84
2022-07-28T23:53:39.766Z,15.90
2022-07-28T23:56:06.418Z,15.87
2022-07-28T23:58:33.806Z,15.99
